sensor_id;sensor_type;location;lat;lon;timestamp;P1;durP1;ratioP1;P2;durP2;ratioP2
76566;SDS011;65428;53.194;6.132;2023-07-31T00:00:34;14.97;;;6.57;;
76566;SDS011;65428;53.194;6.132;2023-07-31T00:03:00;17.13;;;6.68;;
76566;SDS011;65428;53.194;6.132;2023-07-31T00:05:25;13.23;;;4.70;;
76566;SDS011;65428;53.194;6.132;2023-07-31T00:07:51;14.38;;;4.95;;
76566;SDS011;65428;53.194;6.132;2023-07-31T00:10:16;12.17;;;4.80;;
76566;SDS011;65428;53.194;6.132;2023-07-31T00:12:42;13.70;;;5.68;;
76566;SDS011;65428;53.194;6.132;2023-07-31T00:15:10;13.57;;;6.10;;
76566;SDS011;65428;53.194;6.132;2023-07-31T00:17:36;10.07;;;5.57;;
76566;SDS011;65428;53.194;6.132;2023-07-31T00:20:02;12.52;;;5.70;;
76566;SDS011;65428;53.194;6.132;2023-07-31T00:22:27;11.25;;;5.70;;
76566;SDS011;65428;53.194;6.132;2023-07-31T00:24:53;11.27;;;6.03;;
76566;SDS011;65428;53.194;6.132;2023-07-31T00:27:19;11.90;;;5.57;;
76566;SDS011;65428;53.194;6.132;2023-07-31T00:29:44;11.80;;;5.83;;
76566;SDS011;65428;53.194;6.132;2023-07-31T00:32:10;13.30;;;6.03;;
76566;SDS011;65428;53.194;6.132;2023-07-31T00:34:35;9.70;;;4.27;;
76566;SDS011;65428;53.194;6.132;2023-07-31T00:37:01;11.48;;;5.88;;
76566;SDS011;65428;53.194;6.132;2023-07-31T00:39:27;12.07;;;5.73;;
76566;SDS011;65428;53.194;6.132;2023-07-31T00:41:52;10.70;;;4.70;;
76566;SDS011;65428;53.194;6.132;2023-07-31T00:44:18;9.77;;;4.57;;
76566;SDS011;65428;53.194;6.132;2023-07-31T00:46:44;10.20;;;4.87;;
76566;SDS011;65428;53.194;6.132;2023-07-31T00:49:09;9.02;;;4.50;;
76566;SDS011;65428;53.194;6.132;2023-07-31T00:51:36;13.07;;;5.05;;
76566;SDS011;65428;53.194;6.132;2023-07-31T00:54:02;13.10;;;5.18;;
76566;SDS011;65428;53.194;6.132;2023-07-31T00:56:28;12.40;;;6.45;;
76566;SDS011;65428;53.194;6.132;2023-07-31T00:58:55;11.48;;;6.50;;
76566;SDS011;65428;53.194;6.132;2023-07-31T01:01:21;12.93;;;6.65;;
76566;SDS011;65428;53.194;6.132;2023-07-31T01:03:47;9.75;;;6.05;;
76566;SDS011;65428;53.194;6.132;2023-07-31T01:11:48;12.20;;;6.80;;
76566;SDS011;65428;53.194;6.132;2023-07-31T01:14:17;15.52;;;8.07;;
76566;SDS011;65428;53.194;6.132;2023-07-31T01:16:43;15.27;;;7.95;;
76566;SDS011;65428;53.194;6.132;2023-07-31T01:19:09;13.23;;;7.70;;
76566;SDS011;65428;53.194;6.132;2023-07-31T01:21:53;11.75;;;7.22;;
76566;SDS011;65428;53.194;6.132;2023-07-31T01:24:41;12.05;;;7.07;;
76566;SDS011;65428;53.194;6.132;2023-07-31T01:27:39;10.77;;;6.85;;
76566;SDS011;65428;53.194;6.132;2023-07-31T01:30:20;18.42;;;9.07;;
76566;SDS011;65428;53.194;6.132;2023-07-31T01:32:50;13.48;;;7.57;;
76566;SDS011;65428;53.194;6.132;2023-07-31T01:35:17;11.60;;;7.43;;
76566;SDS011;65428;53.194;6.132;2023-07-31T01:37:43;15.85;;;7.72;;
76566;SDS011;65428;53.194;6.132;2023-07-31T01:40:10;14.10;;;7.63;;
76566;SDS011;65428;53.194;6.132;2023-07-31T01:42:36;12.48;;;7.03;;
76566;SDS011;65428;53.194;6.132;2023-07-31T01:45:02;16.57;;;7.90;;
76566;SDS011;65428;53.194;6.132;2023-07-31T01:47:27;15.32;;;7.40;;
76566;SDS011;65428;53.194;6.132;2023-07-31T01:49:53;14.23;;;6.10;;
76566;SDS011;65428;53.194;6.132;2023-07-31T01:52:19;16.08;;;6.43;;
76566;SDS011;65428;53.194;6.132;2023-07-31T01:54:44;18.63;;;6.57;;
76566;SDS011;65428;53.194;6.132;2023-07-31T01:57:10;17.10;;;6.10;;
76566;SDS011;65428;53.194;6.132;2023-07-31T01:59:35;10.13;;;5.40;;
76566;SDS011;65428;53.194;6.132;2023-07-31T02:02:01;16.70;;;5.50;;
76566;SDS011;65428;53.194;6.132;2023-07-31T02:04:27;10.63;;;4.90;;
76566;SDS011;65428;53.194;6.132;2023-07-31T02:06:52;16.02;;;5.18;;
76566;SDS011;65428;53.194;6.132;2023-07-31T02:09:18;14.17;;;5.07;;
76566;SDS011;65428;53.194;6.132;2023-07-31T02:11:44;12.18;;;4.75;;
76566;SDS011;65428;53.194;6.132;2023-07-31T02:14:09;12.27;;;4.00;;
76566;SDS011;65428;53.194;6.132;2023-07-31T02:16:35;10.75;;;3.97;;
76566;SDS011;65428;53.194;6.132;2023-07-31T02:19:00;18.33;;;5.80;;
76566;SDS011;65428;53.194;6.132;2023-07-31T02:21:26;14.20;;;5.03;;
76566;SDS011;65428;53.194;6.132;2023-07-31T02:23:52;13.20;;;4.77;;
76566;SDS011;65428;53.194;6.132;2023-07-31T02:26:17;13.32;;;4.57;;
76566;SDS011;65428;53.194;6.132;2023-07-31T02:28:43;14.33;;;4.90;;
76566;SDS011;65428;53.194;6.132;2023-07-31T02:31:09;11.93;;;4.80;;
76566;SDS011;65428;53.194;6.132;2023-07-31T02:33:34;12.27;;;4.97;;
76566;SDS011;65428;53.194;6.132;2023-07-31T02:36:00;14.77;;;5.60;;
76566;SDS011;65428;53.194;6.132;2023-07-31T02:38:26;12.40;;;4.72;;
76566;SDS011;65428;53.194;6.132;2023-07-31T02:40:51;15.30;;;5.93;;
76566;SDS011;65428;53.194;6.132;2023-07-31T02:43:17;17.35;;;6.10;;
76566;SDS011;65428;53.194;6.132;2023-07-31T02:45:43;11.17;;;4.73;;
76566;SDS011;65428;53.194;6.132;2023-07-31T02:48:08;13.82;;;4.97;;
76566;SDS011;65428;53.194;6.132;2023-07-31T02:50:34;16.97;;;5.50;;
76566;SDS011;65428;53.194;6.132;2023-07-31T02:53:00;13.47;;;6.13;;
76566;SDS011;65428;53.194;6.132;2023-07-31T02:55:25;16.42;;;6.40;;
76566;SDS011;65428;53.194;6.132;2023-07-31T02:57:51;13.50;;;5.20;;
76566;SDS011;65428;53.194;6.132;2023-07-31T03:00:17;13.57;;;5.78;;
76566;SDS011;65428;53.194;6.132;2023-07-31T03:02:43;13.10;;;6.18;;
76566;SDS011;65428;53.194;6.132;2023-07-31T03:05:08;10.87;;;6.10;;
76566;SDS011;65428;53.194;6.132;2023-07-31T03:07:34;11.25;;;5.53;;
76566;SDS011;65428;53.194;6.132;2023-07-31T03:10:00;11.80;;;5.80;;
76566;SDS011;65428;53.194;6.132;2023-07-31T03:12:26;14.82;;;5.90;;
76566;SDS011;65428;53.194;6.132;2023-07-31T03:14:52;13.77;;;6.43;;
76566;SDS011;65428;53.194;6.132;2023-07-31T03:17:18;12.53;;;6.00;;
76566;SDS011;65428;53.194;6.132;2023-07-31T03:19:44;13.85;;;6.03;;
76566;SDS011;65428;53.194;6.132;2023-07-31T03:22:09;9.23;;;5.60;;
76566;SDS011;65428;53.194;6.132;2023-07-31T03:24:35;13.27;;;6.93;;
76566;SDS011;65428;53.194;6.132;2023-07-31T03:27:01;10.37;;;5.90;;
76566;SDS011;65428;53.194;6.132;2023-07-31T03:29:26;10.27;;;5.13;;
76566;SDS011;65428;53.194;6.132;2023-07-31T03:31:52;11.90;;;6.25;;
76566;SDS011;65428;53.194;6.132;2023-07-31T03:34:18;15.10;;;7.27;;
76566;SDS011;65428;53.194;6.132;2023-07-31T03:36:44;11.38;;;5.95;;
76566;SDS011;65428;53.194;6.132;2023-07-31T03:39:09;8.83;;;5.67;;
76566;SDS011;65428;53.194;6.132;2023-07-31T03:41:35;13.88;;;6.70;;
76566;SDS011;65428;53.194;6.132;2023-07-31T03:44:01;8.35;;;4.43;;
76566;SDS011;65428;53.194;6.132;2023-07-31T03:46:26;10.33;;;5.60;;
76566;SDS011;65428;53.194;6.132;2023-07-31T03:48:52;10.25;;;5.57;;
76566;SDS011;65428;53.194;6.132;2023-07-31T03:51:18;8.27;;;4.70;;
76566;SDS011;65428;53.194;6.132;2023-07-31T03:53:44;10.32;;;5.28;;
76566;SDS011;65428;53.194;6.132;2023-07-31T03:56:10;8.45;;;4.38;;
76566;SDS011;65428;53.194;6.132;2023-07-31T03:58:36;6.35;;;4.18;;
76566;SDS011;65428;53.194;6.132;2023-07-31T04:01:02;5.18;;;3.28;;
76566;SDS011;65428;53.194;6.132;2023-07-31T04:03:28;9.93;;;5.03;;
76566;SDS011;65428;53.194;6.132;2023-07-31T04:05:54;6.85;;;3.70;;
76566;SDS011;65428;53.194;6.132;2023-07-31T04:08:23;6.40;;;3.67;;
76566;SDS011;65428;53.194;6.132;2023-07-31T04:10:49;5.80;;;3.27;;
76566;SDS011;65428;53.194;6.132;2023-07-31T04:13:14;5.18;;;3.38;;
76566;SDS011;65428;53.194;6.132;2023-07-31T04:15:40;7.78;;;4.15;;
76566;SDS011;65428;53.194;6.132;2023-07-31T04:18:06;6.27;;;4.13;;
76566;SDS011;65428;53.194;6.132;2023-07-31T04:20:32;8.38;;;4.70;;
76566;SDS011;65428;53.194;6.132;2023-07-31T04:22:57;6.53;;;3.70;;
76566;SDS011;65428;53.194;6.132;2023-07-31T04:25:23;7.93;;;3.50;;
76566;SDS011;65428;53.194;6.132;2023-07-31T04:27:49;4.95;;;2.92;;
76566;SDS011;65428;53.194;6.132;2023-07-31T04:30:15;5.20;;;3.63;;
76566;SDS011;65428;53.194;6.132;2023-07-31T04:32:40;5.88;;;3.88;;
76566;SDS011;65428;53.194;6.132;2023-07-31T04:35:06;7.50;;;4.57;;
76566;SDS011;65428;53.194;6.132;2023-07-31T04:37:32;7.68;;;4.45;;
76566;SDS011;65428;53.194;6.132;2023-07-31T04:39:58;9.35;;;4.22;;
76566;SDS011;65428;53.194;6.132;2023-07-31T04:42:23;6.50;;;3.63;;
76566;SDS011;65428;53.194;6.132;2023-07-31T04:44:49;7.70;;;3.50;;
76566;SDS011;65428;53.194;6.132;2023-07-31T04:47:15;7.80;;;3.70;;
76566;SDS011;65428;53.194;6.132;2023-07-31T04:49:40;9.70;;;4.20;;
76566;SDS011;65428;53.194;6.132;2023-07-31T04:52:06;9.93;;;4.10;;
76566;SDS011;65428;53.194;6.132;2023-07-31T04:54:32;8.57;;;4.57;;
76566;SDS011;65428;53.194;6.132;2023-07-31T04:56:57;8.23;;;3.97;;
76566;SDS011;65428;53.194;6.132;2023-07-31T04:59:23;4.93;;;3.10;;
76566;SDS011;65428;53.194;6.132;2023-07-31T05:01:49;6.73;;;3.50;;
76566;SDS011;65428;53.194;6.132;2023-07-31T05:04:15;9.07;;;4.20;;
76566;SDS011;65428;53.194;6.132;2023-07-31T05:06:41;12.38;;;4.75;;
76566;SDS011;65428;53.194;6.132;2023-07-31T05:09:07;11.82;;;5.03;;
76566;SDS011;65428;53.194;6.132;2023-07-31T05:11:34;14.00;;;5.63;;
76566;SDS011;65428;53.194;6.132;2023-07-31T05:14:00;13.38;;;5.88;;
76566;SDS011;65428;53.194;6.132;2023-07-31T05:16:26;20.80;;;7.27;;
76566;SDS011;65428;53.194;6.132;2023-07-31T05:18:51;11.45;;;5.32;;
76566;SDS011;65428;53.194;6.132;2023-07-31T05:21:17;21.27;;;6.73;;
76566;SDS011;65428;53.194;6.132;2023-07-31T05:28:56;20.77;;;7.03;;
76566;SDS011;65428;53.194;6.132;2023-07-31T05:31:23;36.25;;;10.07;;
76566;SDS011;65428;53.194;6.132;2023-07-31T05:33:50;27.63;;;8.77;;
76566;SDS011;65428;53.194;6.132;2023-07-31T05:36:16;16.52;;;6.40;;
76566;SDS011;65428;53.194;6.132;2023-07-31T05:38:42;23.33;;;7.83;;
76566;SDS011;65428;53.194;6.132;2023-07-31T05:41:10;21.88;;;7.93;;
76566;SDS011;65428;53.194;6.132;2023-07-31T05:43:37;31.23;;;9.27;;
76566;SDS011;65428;53.194;6.132;2023-07-31T05:46:03;17.60;;;7.07;;
76566;SDS011;65428;53.194;6.132;2023-07-31T05:48:28;22.87;;;8.67;;
76566;SDS011;65428;53.194;6.132;2023-07-31T05:50:54;35.63;;;10.25;;
76566;SDS011;65428;53.194;6.132;2023-07-31T05:53:19;24.97;;;9.23;;
76566;SDS011;65428;53.194;6.132;2023-07-31T05:55:45;32.65;;;9.93;;
76566;SDS011;65428;53.194;6.132;2023-07-31T05:58:11;33.50;;;10.07;;
76566;SDS011;65428;53.194;6.132;2023-07-31T06:00:36;30.83;;;9.77;;
76566;SDS011;65428;53.194;6.132;2023-07-31T06:03:02;30.10;;;9.97;;
76566;SDS011;65428;53.194;6.132;2023-07-31T06:05:28;28.75;;;9.60;;
76566;SDS011;65428;53.194;6.132;2023-07-31T06:07:55;29.70;;;9.57;;
76566;SDS011;65428;53.194;6.132;2023-07-31T06:10:21;34.57;;;10.83;;
76566;SDS011;65428;53.194;6.132;2023-07-31T06:12:46;33.65;;;10.45;;
76566;SDS011;65428;53.194;6.132;2023-07-31T06:15:12;41.37;;;12.10;;
76566;SDS011;65428;53.194;6.132;2023-07-31T06:17:38;44.30;;;12.55;;
76566;SDS011;65428;53.194;6.132;2023-07-31T06:20:05;50.33;;;12.90;;
76566;SDS011;65428;53.194;6.132;2023-07-31T06:22:32;41.47;;;11.45;;
76566;SDS011;65428;53.194;6.132;2023-07-31T06:24:57;42.17;;;11.87;;
76566;SDS011;65428;53.194;6.132;2023-07-31T06:27:23;41.60;;;12.20;;
76566;SDS011;65428;53.194;6.132;2023-07-31T06:29:49;38.85;;;11.27;;
76566;SDS011;65428;53.194;6.132;2023-07-31T06:32:15;52.13;;;13.33;;
76566;SDS011;65428;53.194;6.132;2023-07-31T06:34:40;36.70;;;11.88;;
76566;SDS011;65428;53.194;6.132;2023-07-31T06:37:06;49.33;;;13.80;;
76566;SDS011;65428;53.194;6.132;2023-07-31T06:39:31;44.20;;;12.73;;
76566;SDS011;65428;53.194;6.132;2023-07-31T06:41:57;38.00;;;11.07;;
76566;SDS011;65428;53.194;6.132;2023-07-31T06:44:23;42.92;;;12.88;;
76566;SDS011;65428;53.194;6.132;2023-07-31T06:46:48;44.73;;;12.63;;
76566;SDS011;65428;53.194;6.132;2023-07-31T06:49:14;45.42;;;13.00;;
76566;SDS011;65428;53.194;6.132;2023-07-31T06:51:40;43.80;;;12.67;;
76566;SDS011;65428;53.194;6.132;2023-07-31T06:54:07;29.40;;;9.80;;
76566;SDS011;65428;53.194;6.132;2023-07-31T06:56:33;33.83;;;10.75;;
76566;SDS011;65428;53.194;6.132;2023-07-31T06:58:59;55.00;;;12.20;;
76566;SDS011;65428;53.194;6.132;2023-07-31T07:01:25;30.17;;;9.80;;
76566;SDS011;65428;53.194;6.132;2023-07-31T07:03:50;22.27;;;7.40;;
76566;SDS011;65428;53.194;6.132;2023-07-31T07:06:19;28.25;;;8.90;;
76566;SDS011;65428;53.194;6.132;2023-07-31T07:08:45;24.10;;;8.67;;
76566;SDS011;65428;53.194;6.132;2023-07-31T07:11:11;27.27;;;9.55;;
76566;SDS011;65428;53.194;6.132;2023-07-31T07:13:36;27.35;;;8.90;;
76566;SDS011;65428;53.194;6.132;2023-07-31T07:16:02;30.47;;;9.50;;
76566;SDS011;65428;53.194;6.132;2023-07-31T07:18:28;26.75;;;8.02;;
76566;SDS011;65428;53.194;6.132;2023-07-31T07:20:54;25.07;;;7.57;;
76566;SDS011;65428;53.194;6.132;2023-07-31T07:23:20;17.42;;;6.22;;
76566;SDS011;65428;53.194;6.132;2023-07-31T07:25:46;14.95;;;5.80;;
76566;SDS011;65428;53.194;6.132;2023-07-31T07:28:12;13.70;;;4.80;;
76566;SDS011;65428;53.194;6.132;2023-07-31T07:30:39;15.35;;;5.20;;
76566;SDS011;65428;53.194;6.132;2023-07-31T07:33:05;9.40;;;3.33;;
76566;SDS011;65428;53.194;6.132;2023-07-31T07:35:34;12.90;;;3.85;;
76566;SDS011;65428;53.194;6.132;2023-07-31T07:38:01;8.75;;;3.33;;
76566;SDS011;65428;53.194;6.132;2023-07-31T07:40:27;13.57;;;4.97;;
76566;SDS011;65428;53.194;6.132;2023-07-31T07:42:53;14.20;;;5.93;;
76566;SDS011;65428;53.194;6.132;2023-07-31T07:45:19;12.57;;;6.33;;
76566;SDS011;65428;53.194;6.132;2023-07-31T07:47:46;11.20;;;6.53;;
76566;SDS011;65428;53.194;6.132;2023-07-31T07:50:12;14.83;;;7.83;;
76566;SDS011;65428;53.194;6.132;2023-07-31T07:52:38;9.20;;;6.28;;
76566;SDS011;65428;53.194;6.132;2023-07-31T07:55:03;12.13;;;6.87;;
76566;SDS011;65428;53.194;6.132;2023-07-31T07:57:29;11.13;;;6.55;;
76566;SDS011;65428;53.194;6.132;2023-07-31T07:59:55;11.23;;;5.95;;
76566;SDS011;65428;53.194;6.132;2023-07-31T08:02:21;7.47;;;4.07;;
76566;SDS011;65428;53.194;6.132;2023-07-31T08:04:47;7.30;;;3.87;;
76566;SDS011;65428;53.194;6.132;2023-07-31T08:07:13;3.72;;;1.80;;
76566;SDS011;65428;53.194;6.132;2023-07-31T08:09:39;3.63;;;1.08;;
76566;SDS011;65428;53.194;6.132;2023-07-31T08:12:05;2.20;;;0.50;;
76566;SDS011;65428;53.194;6.132;2023-07-31T08:14:31;1.10;;;0.30;;
76566;SDS011;65428;53.194;6.132;2023-07-31T08:16:57;1.05;;;0.25;;
76566;SDS011;65428;53.194;6.132;2023-07-31T08:19:23;1.40;;;0.20;;
76566;SDS011;65428;53.194;6.132;2023-07-31T08:21:49;0.77;;;0.20;;
76566;SDS011;65428;53.194;6.132;2023-07-31T08:24:14;0.82;;;0.10;;
76566;SDS011;65428;53.194;6.132;2023-07-31T08:26:40;0.50;;;0.10;;
76566;SDS011;65428;53.194;6.132;2023-07-31T08:29:06;1.13;;;0.20;;
76566;SDS011;65428;53.194;6.132;2023-07-31T08:31:31;1.03;;;0.20;;
76566;SDS011;65428;53.194;6.132;2023-07-31T08:33:57;1.00;;;0.13;;
76566;SDS011;65428;53.194;6.132;2023-07-31T08:36:23;0.80;;;0.20;;
76566;SDS011;65428;53.194;6.132;2023-07-31T08:38:48;0.68;;;0.20;;
76566;SDS011;65428;53.194;6.132;2023-07-31T08:41:15;1.50;;;0.30;;
76566;SDS011;65428;53.194;6.132;2023-07-31T08:43:44;0.65;;;0.20;;
76566;SDS011;65428;53.194;6.132;2023-07-31T08:46:11;0.98;;;0.20;;
76566;SDS011;65428;53.194;6.132;2023-07-31T08:48:39;1.15;;;0.47;;
76566;SDS011;65428;53.194;6.132;2023-07-31T08:51:07;2.25;;;0.47;;
76566;SDS011;65428;53.194;6.132;2023-07-31T08:53:33;2.00;;;0.40;;
76566;SDS011;65428;53.194;6.132;2023-07-31T08:55:59;1.95;;;0.40;;
76566;SDS011;65428;53.194;6.132;2023-07-31T08:58:25;2.20;;;0.40;;
76566;SDS011;65428;53.194;6.132;2023-07-31T09:00:55;1.48;;;0.20;;
76566;SDS011;65428;53.194;6.132;2023-07-31T09:03:21;0.70;;;0.20;;
76566;SDS011;65428;53.194;6.132;2023-07-31T09:05:49;1.02;;;0.28;;
76566;SDS011;65428;53.194;6.132;2023-07-31T09:08:17;1.80;;;0.30;;
76566;SDS011;65428;53.194;6.132;2023-07-31T09:10:45;15.07;;;1.50;;
76566;SDS011;65428;53.194;6.132;2023-07-31T09:13:15;1.67;;;0.30;;
76566;SDS011;65428;53.194;6.132;2023-07-31T09:15:43;1.67;;;0.40;;
76566;SDS011;65428;53.194;6.132;2023-07-31T09:18:10;4.38;;;0.30;;
76566;SDS011;65428;53.194;6.132;2023-07-31T09:20:36;2.92;;;0.30;;
76566;SDS011;65428;53.194;6.132;2023-07-31T09:23:06;3.80;;;0.70;;
76566;SDS011;65428;53.194;6.132;2023-07-31T09:25:39;3.30;;;0.50;;
76566;SDS011;65428;53.194;6.132;2023-07-31T09:28:09;2.90;;;0.40;;
76566;SDS011;65428;53.194;6.132;2023-07-31T09:33:15;2.90;;;0.55;;
76566;SDS011;65428;53.194;6.132;2023-07-31T09:35:42;5.13;;;0.63;;
76566;SDS011;65428;53.194;6.132;2023-07-31T09:38:12;2.35;;;0.40;;
76566;SDS011;65428;53.194;6.132;2023-07-31T09:40:40;4.70;;;0.40;;
76566;SDS011;65428;53.194;6.132;2023-07-31T09:43:08;2.28;;;0.20;;
76566;SDS011;65428;53.194;6.132;2023-07-31T09:45:38;1.90;;;0.30;;
76566;SDS011;65428;53.194;6.132;2023-07-31T09:48:09;2.95;;;0.40;;
76566;SDS011;65428;53.194;6.132;2023-07-31T09:50:40;2.30;;;0.20;;
76566;SDS011;65428;53.194;6.132;2023-07-31T09:53:08;2.13;;;0.20;;
76566;SDS011;65428;53.194;6.132;2023-07-31T09:55:35;2.75;;;0.30;;
76566;SDS011;65428;53.194;6.132;2023-07-31T09:58:11;2.67;;;0.40;;
76566;SDS011;65428;53.194;6.132;2023-07-31T10:00:37;2.50;;;0.50;;
76566;SDS011;65428;53.194;6.132;2023-07-31T10:03:06;3.80;;;0.77;;
76566;SDS011;65428;53.194;6.132;2023-07-31T10:05:38;1.90;;;0.30;;
76566;SDS011;65428;53.194;6.132;2023-07-31T10:08:13;3.00;;;0.30;;
76566;SDS011;65428;53.194;6.132;2023-07-31T10:10:44;1.90;;;0.40;;
76566;SDS011;65428;53.194;6.132;2023-07-31T10:13:11;2.03;;;0.30;;
76566;SDS011;65428;53.194;6.132;2023-07-31T10:15:40;4.20;;;0.70;;
76566;SDS011;65428;53.194;6.132;2023-07-31T10:18:08;3.22;;;0.57;;
76566;SDS011;65428;53.194;6.132;2023-07-31T10:20:34;2.83;;;0.55;;
76566;SDS011;65428;53.194;6.132;2023-07-31T10:23:01;4.67;;;1.10;;
76566;SDS011;65428;53.194;6.132;2023-07-31T10:25:27;4.28;;;1.40;;
76566;SDS011;65428;53.194;6.132;2023-07-31T10:27:55;5.32;;;2.05;;
76566;SDS011;65428;53.194;6.132;2023-07-31T10:30:24;6.45;;;2.70;;
76566;SDS011;65428;53.194;6.132;2023-07-31T10:32:54;12.23;;;3.58;;
76566;SDS011;65428;53.194;6.132;2023-07-31T10:35:22;6.60;;;2.85;;
76566;SDS011;65428;53.194;6.132;2023-07-31T10:37:48;4.85;;;2.20;;
76566;SDS011;65428;53.194;6.132;2023-07-31T10:42:52;4.43;;;1.45;;
76566;SDS011;65428;53.194;6.132;2023-07-31T10:48:07;5.32;;;2.13;;
76566;SDS011;65428;53.194;6.132;2023-07-31T10:50:40;6.35;;;2.53;;
76566;SDS011;65428;53.194;6.132;2023-07-31T10:53:24;7.55;;;3.10;;
76566;SDS011;65428;53.194;6.132;2023-07-31T10:56:01;9.25;;;3.92;;
76566;SDS011;65428;53.194;6.132;2023-07-31T10:58:35;6.80;;;3.55;;
76566;SDS011;65428;53.194;6.132;2023-07-31T11:01:02;6.78;;;3.63;;
76566;SDS011;65428;53.194;6.132;2023-07-31T11:03:48;3.30;;;0.60;;
76566;SDS011;65428;53.194;6.132;2023-07-31T11:06:29;3.22;;;0.60;;
76566;SDS011;65428;53.194;6.132;2023-07-31T11:08:55;5.80;;;0.82;;
76566;SDS011;65428;53.194;6.132;2023-07-31T11:11:21;5.67;;;1.80;;
76566;SDS011;65428;53.194;6.132;2023-07-31T11:13:47;4.85;;;1.60;;
76566;SDS011;65428;53.194;6.132;2023-07-31T11:16:15;5.10;;;1.47;;
76566;SDS011;65428;53.194;6.132;2023-07-31T11:18:42;8.30;;;2.53;;
76566;SDS011;65428;53.194;6.132;2023-07-31T11:21:12;7.60;;;2.80;;
76566;SDS011;65428;53.194;6.132;2023-07-31T11:23:39;14.57;;;3.83;;
76566;SDS011;65428;53.194;6.132;2023-07-31T11:26:06;17.13;;;4.57;;
76566;SDS011;65428;53.194;6.132;2023-07-31T11:28:32;7.60;;;3.67;;
76566;SDS011;65428;53.194;6.132;2023-07-31T11:31:00;6.13;;;3.67;;
76566;SDS011;65428;53.194;6.132;2023-07-31T11:33:26;6.95;;;3.45;;
76566;SDS011;65428;53.194;6.132;2023-07-31T11:36:00;8.52;;;4.20;;
76566;SDS011;65428;53.194;6.132;2023-07-31T11:38:29;7.07;;;3.40;;
76566;SDS011;65428;53.194;6.132;2023-07-31T11:41:03;6.55;;;3.38;;
76566;SDS011;65428;53.194;6.132;2023-07-31T11:43:30;4.97;;;2.75;;
76566;SDS011;65428;53.194;6.132;2023-07-31T11:46:00;5.65;;;2.58;;
76566;SDS011;65428;53.194;6.132;2023-07-31T11:48:49;6.25;;;3.13;;
76566;SDS011;65428;53.194;6.132;2023-07-31T11:51:15;9.50;;;3.75;;
76566;SDS011;65428;53.194;6.132;2023-07-31T11:53:46;9.30;;;4.80;;
76566;SDS011;65428;53.194;6.132;2023-07-31T11:56:19;10.45;;;4.97;;
76566;SDS011;65428;53.194;6.132;2023-07-31T11:58:46;10.63;;;4.20;;
76566;SDS011;65428;53.194;6.132;2023-07-31T12:01:14;7.97;;;3.80;;
76566;SDS011;65428;53.194;6.132;2023-07-31T12:03:44;7.13;;;3.50;;
76566;SDS011;65428;53.194;6.132;2023-07-31T12:06:11;6.30;;;3.70;;
76566;SDS011;65428;53.194;6.132;2023-07-31T12:08:37;8.48;;;3.20;;
76566;SDS011;65428;53.194;6.132;2023-07-31T12:11:07;7.17;;;3.53;;
76566;SDS011;65428;53.194;6.132;2023-07-31T12:13:35;4.68;;;3.10;;
76566;SDS011;65428;53.194;6.132;2023-07-31T12:16:03;7.47;;;1.80;;
76566;SDS011;65428;53.194;6.132;2023-07-31T12:18:30;7.10;;;2.17;;
76566;SDS011;65428;53.194;6.132;2023-07-31T12:21:04;4.85;;;2.20;;
76566;SDS011;65428;53.194;6.132;2023-07-31T12:23:37;7.35;;;2.72;;
76566;SDS011;65428;53.194;6.132;2023-07-31T12:26:10;7.65;;;3.17;;
76566;SDS011;65428;53.194;6.132;2023-07-31T12:28:49;8.77;;;3.57;;
76566;SDS011;65428;53.194;6.132;2023-07-31T12:31:16;9.13;;;4.50;;
76566;SDS011;65428;53.194;6.132;2023-07-31T12:33:43;15.52;;;4.88;;
76566;SDS011;65428;53.194;6.132;2023-07-31T12:36:13;10.37;;;4.93;;
76566;SDS011;65428;53.194;6.132;2023-07-31T12:38:41;9.70;;;5.65;;
76566;SDS011;65428;53.194;6.132;2023-07-31T12:41:07;11.32;;;6.13;;
76566;SDS011;65428;53.194;6.132;2023-07-31T12:43:37;10.27;;;4.00;;
76566;SDS011;65428;53.194;6.132;2023-07-31T12:46:04;11.23;;;5.43;;
76566;SDS011;65428;53.194;6.132;2023-07-31T12:48:32;14.25;;;5.30;;
76566;SDS011;65428;53.194;6.132;2023-07-31T12:50:58;10.20;;;4.77;;
76566;SDS011;65428;53.194;6.132;2023-07-31T12:53:24;10.75;;;4.10;;
76566;SDS011;65428;53.194;6.132;2023-07-31T12:55:49;10.60;;;4.20;;
76566;SDS011;65428;53.194;6.132;2023-07-31T12:58:15;8.70;;;4.00;;
76566;SDS011;65428;53.194;6.132;2023-07-31T13:00:41;10.07;;;3.80;;
76566;SDS011;65428;53.194;6.132;2023-07-31T13:03:07;12.70;;;3.90;;
76566;SDS011;65428;53.194;6.132;2023-07-31T13:05:33;9.00;;;3.80;;
76566;SDS011;65428;53.194;6.132;2023-07-31T13:07:58;10.25;;;3.90;;
76566;SDS011;65428;53.194;6.132;2023-07-31T13:10:24;11.57;;;4.03;;
76566;SDS011;65428;53.194;6.132;2023-07-31T13:12:51;12.48;;;4.10;;
76566;SDS011;65428;53.194;6.132;2023-07-31T13:15:17;10.27;;;4.35;;
76566;SDS011;65428;53.194;6.132;2023-07-31T13:17:43;10.85;;;3.90;;
76566;SDS011;65428;53.194;6.132;2023-07-31T13:20:10;10.07;;;3.60;;
76566;SDS011;65428;53.194;6.132;2023-07-31T13:22:36;10.68;;;2.78;;
76566;SDS011;65428;53.194;6.132;2023-07-31T13:25:02;8.93;;;3.67;;
76566;SDS011;65428;53.194;6.132;2023-07-31T13:27:28;8.88;;;2.67;;
76566;SDS011;65428;53.194;6.132;2023-07-31T13:29:54;10.03;;;2.80;;
76566;SDS011;65428;53.194;6.132;2023-07-31T13:32:21;8.68;;;2.55;;
76566;SDS011;65428;53.194;6.132;2023-07-31T13:34:48;8.23;;;2.90;;
76566;SDS011;65428;53.194;6.132;2023-07-31T13:37:15;8.65;;;2.85;;
76566;SDS011;65428;53.194;6.132;2023-07-31T13:39:41;7.85;;;2.40;;
76566;SDS011;65428;53.194;6.132;2023-07-31T13:42:08;8.48;;;2.70;;
76566;SDS011;65428;53.194;6.132;2023-07-31T13:44:34;6.13;;;1.95;;
76566;SDS011;65428;53.194;6.132;2023-07-31T13:47:00;5.80;;;2.08;;
76566;SDS011;65428;53.194;6.132;2023-07-31T13:49:26;5.63;;;1.80;;
76566;SDS011;65428;53.194;6.132;2023-07-31T13:51:52;8.63;;;2.40;;
76566;SDS011;65428;53.194;6.132;2023-07-31T13:54:18;8.80;;;2.80;;
76566;SDS011;65428;53.194;6.132;2023-07-31T13:56:43;7.85;;;2.10;;
76566;SDS011;65428;53.194;6.132;2023-07-31T13:59:10;8.13;;;2.63;;
76566;SDS011;65428;53.194;6.132;2023-07-31T14:01:35;7.63;;;2.28;;
76566;SDS011;65428;53.194;6.132;2023-07-31T14:04:01;7.35;;;1.98;;
76566;SDS011;65428;53.194;6.132;2023-07-31T14:06:27;6.13;;;2.43;;
76566;SDS011;65428;53.194;6.132;2023-07-31T14:08:53;10.63;;;2.70;;
76566;SDS011;65428;53.194;6.132;2023-07-31T14:11:18;10.67;;;2.93;;
76566;SDS011;65428;53.194;6.132;2023-07-31T14:13:44;7.43;;;3.20;;
76566;SDS011;65428;53.194;6.132;2023-07-31T14:16:10;9.03;;;3.30;;
76566;SDS011;65428;53.194;6.132;2023-07-31T14:18:35;8.35;;;2.97;;
76566;SDS011;65428;53.194;6.132;2023-07-31T14:21:01;12.70;;;3.33;;
76566;SDS011;65428;53.194;6.132;2023-07-31T14:23:26;9.30;;;2.90;;
76566;SDS011;65428;53.194;6.132;2023-07-31T14:25:52;9.32;;;2.88;;
76566;SDS011;65428;53.194;6.132;2023-07-31T14:28:18;9.43;;;3.17;;
76566;SDS011;65428;53.194;6.132;2023-07-31T14:30:43;10.45;;;2.85;;
76566;SDS011;65428;53.194;6.132;2023-07-31T14:33:09;9.40;;;3.07;;
76566;SDS011;65428;53.194;6.132;2023-07-31T14:35:34;9.00;;;2.80;;
76566;SDS011;65428;53.194;6.132;2023-07-31T14:38:00;8.85;;;3.03;;
76566;SDS011;65428;53.194;6.132;2023-07-31T14:40:26;9.45;;;2.90;;
76566;SDS011;65428;53.194;6.132;2023-07-31T14:42:52;8.55;;;2.65;;
76566;SDS011;65428;53.194;6.132;2023-07-31T14:45:18;8.37;;;3.40;;
76566;SDS011;65428;53.194;6.132;2023-07-31T14:47:43;22.98;;;6.10;;
76566;SDS011;65428;53.194;6.132;2023-07-31T14:50:09;20.90;;;6.80;;
76566;SDS011;65428;53.194;6.132;2023-07-31T14:52:35;22.48;;;9.00;;
76566;SDS011;65428;53.194;6.132;2023-07-31T14:55:01;17.05;;;7.30;;
76566;SDS011;65428;53.194;6.132;2023-07-31T14:57:28;20.15;;;8.20;;